Tiempo atmosférico en la estación meteorológica de A Lama, Pontevedra (395 m.)

Fecha
DESCASC
Temp. máxima en grados centígrados (hora)
DESCASC
Temp. mínima en grados centígrados (hora)
DESCASC
Temp. media en grados centígrados
DESCASC
Racha de viento máxima en m/sg (hora)
DESCASC
Velocidad máxima media en intervalos de 10 minutos(hora)
DESCASC
Precipitaciones diarias en mm
DESCASC
Precipitaciones de 00:00 a 06:00 en mm
DESCASC
Precipitaciones de 06:00 a 12:00 en mm
DESCASC
Precipitaciones de 12:00 a 18:00 en mm
DESCASC
Precipitaciones de 18:00 a 24:00 en mm
DESCASC
10-12-2017 13.2 (16:40) 7.4 (23:50) 10.3 23.06 (21:00) 11.11 (21:10) 232 13 60.2 103.2 55.6
09-12-2017 12.7 (17:00) 9.1 (00:50) 10.9 10.56 (16:10) 5 (16:10) 9.4 1.2 4.8 3 0.4
08-12-2017 12.6 (18:50) 9.4 (23:59) 11 3.33 (15:00) 1.39 (15:00) 11.4 1.2 2.2 7.8 0.2
07-12-2017 10.5 (12:20) 3 (00:00) 6.8 6.39 (19:20) 2.78 (19:50) 14.6 0 0 4.8 9.8
06-12-2017 12.2 (15:40) -1.9 (-00:0) 5.1 5.56 (16:10) 2.78 (16:10) 0 0 0 0 0
05-12-2017 13.8 (14:20) -0.7 (-00:0) 6.6 8.89 (03:30) 5.56 (03:20) 0 0 0 0 0
04-12-2017 13.1 (14:40) 1.3 (00:00) 7.2 9.44 (05:00) 5.56 (05:00) 0 0 0 0 0
03-12-2017 11.5 (15:30) 0.4 (00:00) 6 8.89 (15:00) 4.72 (22:10) 0 0 0 0 0
02-12-2017 9.4 (15:40) -2.2 (-00:0) 3.6 10.28 (13:50) 5.28 (12:50) 0 0 0 0 0
01-12-2017 9.5 (15:20) -2 (-00:0) 3.8 9.72 (13:10) 4.17 (13:20) 0.6 0.2 0.2 0.2 0
30-11-2017 10 (13:20) -1.2 (-00:0) 4.4 8.06 (11:50) 4.17 (03:00) 0 0 0 0 0
29-11-2017 9.4 (13:30) 3.4 (00:00) 6.4 10.28 (13:20) 4.17 (02:00) 0 0 0 0 0
28-11-2017 13.9 (15:00) -1.7 (-00:0) 6.1 6.39 (19:20) 4.17 (19:20) 0 0 0 0 0
27-11-2017 14.2 (14:10) -0.4 (00:00) 6.9 9.17 (01:50) 5 (01:00) 0 0 0 0 0
26-11-2017 12.9 (15:50) 5.7 (00:00) 9.3 13.06 (08:20) 8.33 (07:40) 0 0 0 0 0
25-11-2017 12.4 (14:50) 7 (00:00) 9.7 13.61 (22:20) 8.33 (23:40) 0.6 0.6 0 0 0
24-11-2017 13.8 (15:30) 10.6 (00:00) 12.2 5.83 (23:50) 2.22 (23:50) 24.4 6 3 7.4 8
23-11-2017 17.2 (15:30) 11.9 (00:00) 14.6 10.28 (00:30) 4.44 (14:20) 17 4 0 4 9
22-11-2017 17.6 (15:00) 4.8 (00:00) 11.2 16.39 (17:20) 7.5 (18:30) 21.8 0 0 0 21.8
21-11-2017 19.4 (14:00) 1.6 (00:00) 10.5 7.5 (13:40) 3.33 (13:40) 0 0 0 0 0
20-11-2017 19.9 (14:40) 2.5 (00:00) 11.2 5.56 (13:50) 2.5 (14:00) 0 0 0 0 0
19-11-2017 20.1 (14:20) 4.2 (00:00) 12.2 6.39 (06:20) 2.5 (14:30) 0 0 0 0 0
18-11-2017 20.7 (15:00) 4.2 (00:00) 12.5 10 (10:40) 5.83 (10:40) 0 0 0 0 0
17-11-2017 19.4 (15:40) 2.4 (00:00) 10.9 6.11 (09:50) 2.22 (03:40) 0 0 0 0 0
16-11-2017 18.5 (15:20) 1.2 (00:00) 9.9 4.17 (08:50) 2.22 (21:50) 0 0 0 0 0
15-11-2017 18 (15:10) 2.4 (00:00) 10.2 4.44 (09:10) 2.22 (14:20) 0 0 0 0 0

Gráficas

Temp. máximas Temp. mínimas Temp. medias Precipitaciones Rachas de viento máximas Velocidades máximas media en intervalos de 10 minutos

Datos horarios

Fecha y hora oficial Temperatura (ºC) Velocidad del viento (km/h) Dirección del viento Racha (km/h) Dirección de racha Precipitación (mm) Presión (hPa) Tendencia (hPa) Humedad (%)
2017-12-14 23:00:00 9.4 9 Oeste 17 Oeste 1 -- -- 99
2017-12-14 22:00:00 9.2 2 Sur 17 Noroeste 1.4 -- -- 98
2017-12-14 21:00:00 9 2 Sur 9 Sudoeste 0 -- -- 98
2017-12-14 20:00:00 9.4 3 Sudoeste 18 Oeste 0 -- -- 96
2017-12-14 19:00:00 9.6 10 Noroeste 20 Noroeste 0 -- -- 96
2017-12-14 18:00:00 10 11 Noroeste 27 Noroeste 0 -- -- 93
2017-12-14 17:00:00 11 17 Noroeste 30 Noroeste 0 -- -- 91
2017-12-14 16:00:00 11.7 11 Noroeste 21 Noroeste 0 -- -- 97
2017-12-14 15:00:00 11.9 11 Noroeste 35 Noroeste 0.8 -- -- 100
2017-12-14 14:00:00 12.6 15 Oeste 42 Noroeste 2.2 -- -- 100
2017-12-14 13:00:00 12.7 17 Oeste 33 Oeste 3.8 -- -- 100
2017-12-14 12:00:00 12.5 10 Sudoeste 20 Sudoeste 3.4 -- -- 100
2017-12-14 11:00:00 12.2 7 Sudoeste 24 Oeste 3.2 -- -- 100
2017-12-14 10:00:00 12 9 Oeste 24 Oeste 0.6 -- -- 100
2017-12-14 09:00:00 12 12 Oeste 34 Oeste 0 -- -- 100
2017-12-14 08:00:00 12.3 22 Oeste 44 Oeste 0.6 -- -- 100
2017-12-14 07:00:00 12.6 15 Oeste 40 Oeste 2.6 -- -- 100
2017-12-14 06:00:00 12.7 22 Oeste 42 Noroeste 5 -- -- 100
2017-12-14 05:00:00 12.3 12 Sudoeste 27 Sudoeste 3.2 -- -- 100
2017-12-14 04:00:00 11.8 6 Sudoeste 29 Oeste 0.4 -- -- 100
2017-12-14 03:00:00 12.2 10 Oeste 28 Sudoeste 3.6 -- -- 100
2017-12-14 02:00:00 12.3 9 Oeste 30 Oeste 1.8 -- -- 100
2017-12-14 01:00:00 12.6 13 Oeste 30 Noroeste 2.6 -- -- 100
2017-12-14 00:00:00 12.5 12 Oeste 27 Oeste 2.6 -- -- 100
2017-12-13 23:00:00 12.5 10 Oeste 23 Sudoeste 3.2 -- -- 100
2017-12-13 22:00:00 12.1 10 Oeste 22 Oeste 5.6 -- -- 100
2017-12-13 21:00:00 11.1 3 Oeste 12 Sudoeste 3.8 -- -- 100
2017-12-13 20:00:00 10.7 4 Sur 10 Sudoeste 3.2 -- -- 100
2017-12-13 19:00:00 10.5 3 Sur 12 Sudoeste 2.8 -- -- 100
2017-12-13 18:00:00 10.3 6 Sudoeste 14 Sudoeste 2 -- -- 100
2017-12-13 17:00:00 10.1 5 Sudoeste 25 Sudoeste 1.4 -- -- 100
2017-12-13 16:00:00 9.9 8 Sur 19 Sur 0.8 -- -- 100
2017-12-13 15:00:00 9.9 8 Sudoeste 24 Sudoeste 0.2 -- -- 100
2017-12-13 14:00:00 9.9 10 Sudoeste 23 Sudoeste 0 -- -- 100
2017-12-13 13:00:00 9.8 9 Sudoeste 18 Sur 0 -- -- 100
2017-12-13 12:00:00 9.2 5 Sur 21 Sudoeste 0.2 -- -- 100
2017-12-13 11:00:00 9 7 Sur 22 Sudoeste 0 -- -- 100
2017-12-13 10:00:00 8.5 7 Sudoeste 19 Sudoeste 0 -- -- 100
2017-12-13 09:00:00 8.4 5 Sudoeste 14 Sudoeste 0 -- -- 100
2017-12-13 08:00:00 8.1 4 Oeste 16 Sudoeste 0.2 -- -- 100
2017-12-13 07:00:00 8.1 5 Sudoeste 17 Sudoeste 0.4 -- -- 100
2017-12-13 06:00:00 8 6 Sudoeste 22 Sudoeste 1 -- -- 100
2017-12-13 05:00:00 7.9 6 Sudoeste 19 Sur 0.4 -- -- 100
2017-12-13 04:00:00 7.8 8 Sur 19 Sudoeste 0.6 -- -- 100
2017-12-13 03:00:00 7.5 6 Sur 18 Sudoeste 0.2 -- -- 100
2017-12-13 02:00:00 7.1 8 Sur 18 Sudoeste 0.2 -- -- 99
2017-12-13 01:00:00 6.9 3 Sur 14 Sudoeste 0.4 -- -- 99
2017-12-13 00:00:00 6.8 3 Sudoeste 13 Sur 0.2 -- -- 98
2017-12-12 23:00:00 6.8 5 Sur 12 Sudoeste 0 -- -- 96
2017-12-12 22:00:00 7.1 6 Sur 13 Sur 0 -- -- 94
2017-12-12 21:00:00 7 3 Sudoeste 10 Sudoeste 0 -- -- 96
2017-12-12 20:00:00 7 3 Oeste 10 Sudoeste 0 -- -- 94
2017-12-12 19:00:00 7.2 3 Sudoeste 6 Sudoeste 0 -- -- 93
2017-12-12 18:00:00 7.6 4 Sudoeste 13 Sudoeste 0 -- -- 90
2017-12-12 17:00:00 8.1 6 Sudoeste 12 Sudoeste 0 -- -- 89
2017-12-12 16:00:00 8.3 4 Sudoeste 12 Sudoeste 0 -- -- 89
2017-12-12 15:00:00 8.4 5 Sur 16 Sudoeste 0 -- -- 86
2017-12-12 14:00:00 7.7 3 Sudoeste 13 Sudoeste 0 -- -- 93
2017-12-12 13:00:00 7.5 5 Sudoeste 12 Sudoeste 0 -- -- 99
2017-12-12 12:00:00 6.1 3 Sudoeste 8 Oeste 0 -- -- 100
2017-12-12 11:00:00 3.4 0 Calma 3 Noroeste 0 -- -- 100
2017-12-12 10:00:00 0.8 0 Calma 5 Noroeste 0 -- -- 100
2017-12-12 09:00:00 0.3 3 Noroeste 6 Noroeste 0 -- -- 100
2017-12-12 08:00:00 0.3 4 Noroeste 8 Norte 0.2 -- -- 100
2017-12-12 07:00:00 0.1 3 Noroeste 7 Noroeste 0 -- -- 100
2017-12-12 06:00:00 -0.4 2 Noroeste 6 Noroeste 0 -- -- 100
2017-12-12 05:00:00 -0.6 0 Calma 7 Noroeste 0 -- -- 100
2017-12-12 04:00:00 -0.3 3 Noroeste 6 Noroeste 0 -- -- 100
2017-12-12 03:00:00 -0.4 3 Noroeste 5 Noroeste 0 -- -- 100
2017-12-12 02:00:00 0.4 2 Norte 6 Noroeste 0 -- -- 100
2017-12-12 01:00:00 0.8 0 Calma 4 Noroeste 0 -- -- 100
2017-12-12 00:00:00 0.8 2 Noroeste 8 Noroeste 0 -- -- 100
2017-12-11 23:00:00 0.7 4 Norte 9 Norte 0 -- -- 100
2017-12-11 22:00:00 0.4 3 Noroeste 5 Noroeste 0 -- -- 100
2017-12-11 21:00:00 1.9 0 Calma 7 Noroeste 0 -- -- 99
2017-12-11 20:00:00 2.9 0 Calma 8 Nordeste 0 -- -- 97
2017-12-11 19:00:00 4.2 4 Este 9 Nordeste 0 -- -- 96
2017-12-11 18:00:00 5 4 Nordeste 23 Nordeste 0 -- -- 93
2017-12-11 17:00:00 7.1 9 Norte 32 Noroeste 0 -- -- 86
2017-12-11 16:00:00 7.2 13 Norte 28 Noroeste 0 -- -- 94
2017-12-11 15:00:00 6.7 6 Nordeste 26 Norte 0 -- -- 100
2017-12-11 14:00:00 5.9 5 Norte 21 Norte 0.2 -- -- 100
2017-12-11 13:00:00 5.8 9 Norte 33 Norte 0.2 -- -- 100
2017-12-11 12:00:00 5.9 8 Nordeste 19 Nordeste 0 -- -- 100
2017-12-11 11:00:00 5.3 4 Norte 30 Noroeste 4.4 -- -- 100
2017-12-11 10:00:00 5.5 0 Calma 10 Sur 2.2 -- -- 100
2017-12-11 09:00:00 5.2 5 Oeste 19 Sudoeste 2.6 -- -- 100
2017-12-11 08:00:00 4.7 5 Sur 27 Oeste 1 -- -- 100
2017-12-11 07:00:00 4.5 5 Sur 10 Sur 0.6 -- -- 100
2017-12-11 06:00:00 4.4 2 Sudoeste 6 Sudoeste 0.6 -- -- 100
2017-12-11 05:00:00 4.3 0 Calma 10 Noroeste 0.2 -- -- 100
2017-12-11 04:00:00 4.6 14 Noroeste 41 Noroeste 2.8 -- -- 100
2017-12-11 03:00:00 5.5 20 Noroeste 35 Noroeste 2.2 -- -- 100
2017-12-11 02:00:00 6.3 19 Noroeste 38 Noroeste 0.8 -- -- 100
2017-12-11 01:00:00 7.2 23 Noroeste 51 Noroeste 2.4 -- -- 100
2017-12-11 00:00:00 7.5 11 Oeste 39 Oeste 3.2 -- -- 100
2017-12-10 23:00:00 8.1 21 Oeste 43 Sudoeste 7.6 -- -- 100
2017-12-10 22:00:00 7.9 16 Oeste 69 Noroeste 6.6 -- -- 100
2017-12-10 21:00:00 11.5 34 Oeste 83 Sudoeste 13.6 -- -- 98
2017-12-10 20:00:00 12.5 35 Oeste 75 Oeste 10.4 -- -- 100
2017-12-10 19:00:00 12.8 31 Oeste 72 Sudoeste 14.2 -- -- 100
2017-12-10 18:00:00 13.1 28 Sudoeste 72 Oeste 13.8 -- -- 100
2017-12-10 17:00:00 13.1 30 Oeste 66 Sudoeste 19.8 -- -- 100
2017-12-10 16:00:00 13 25 Oeste 70 Sudoeste 23 -- -- 100
2017-12-10 15:00:00 13.1 31 Oeste 75 Sudoeste 15.8 -- -- 100
2017-12-10 14:00:00 13.1 26 Sudoeste 72 Sudoeste 13.6 -- -- 100
2017-12-10 13:00:00 13 23 Sudoeste 67 Sudoeste 17.2 -- -- 100
2017-12-10 12:00:00 13.1 25 Sudoeste 57 Sudoeste 16.6 -- -- 100
2017-12-10 11:00:00 13.1 24 Sudoeste 50 Sudoeste 15 -- -- 100
2017-12-10 10:00:00 13 22 Sudoeste 51 Sudoeste 14 -- -- 100
2017-12-10 09:00:00 13.1 20 Sudoeste 46 Oeste 4.8 -- -- 100
2017-12-10 08:00:00 13.1 17 Oeste 48 Sudoeste 3.8 -- -- 100
2017-12-10 07:00:00 13 24 Sudoeste 44 Sudoeste 6 -- -- 100
2017-12-10 06:00:00 12.8 19 Oeste 42 Sudoeste 3.8 -- -- 100
2017-12-10 05:00:00 12.5 15 Oeste 44 Sudoeste 0.6 -- -- 100
2017-12-10 04:00:00 12.3 15 Oeste 32 Sudoeste 4.8 -- -- 100
2017-12-10 03:00:00 12 13 Sudoeste 29 Oeste 0.8 -- -- 100
2017-12-10 02:00:00 12 10 Sudoeste 31 Oeste 0 -- -- 100
2017-12-10 01:00:00 12.1 11 Oeste 27 Oeste 3 -- -- 100
2017-12-10 00:00:00 12.1 9 Sudoeste 26 Sudoeste 0.2 -- -- 100
2017-12-09 23:00:00 12.1 8 Oeste 25 Sudoeste 0 -- -- 100
2017-12-09 22:00:00 12.2 9 Oeste 29 Oeste 0 -- -- 100
2017-12-09 21:00:00 12.1 9 Sudoeste 26 Sudoeste 0.2 -- -- 100
2017-12-09 20:00:00 12.4 15 Oeste 35 Oeste 0 -- -- 100
2017-12-09 19:00:00 12.5 13 Oeste 32 Oeste 0 -- -- 100
2017-12-09 18:00:00 12.6 17 Oeste 36 Oeste 0.2 -- -- 100
2017-12-09 17:00:00 12.7 14 Oeste 38 Oeste 0.2 -- -- 100
2017-12-09 16:00:00 12.5 9 Oeste 27 Oeste 2 -- -- 100
2017-12-09 15:00:00 12.3 9 Sudoeste 22 Noroeste 0.2 -- -- 100
2017-12-09 14:00:00 12.3 9 Sudoeste 18 Oeste 0.2 -- -- 100
2017-12-09 13:00:00 11.9 6 Oeste 23 Oeste 0.2 -- -- 100
2017-12-09 12:00:00 11.1 3 Oeste 9 Sudoeste 1 -- -- 100
2017-12-09 11:00:00 10.7 2 Sudoeste 8 Sudoeste 1.2 -- -- 100
2017-12-09 10:00:00 10.4 3 Sudoeste 6 Sudoeste 0.8 -- -- 100
2017-12-09 09:00:00 10 2 Sudoeste 5 Sudoeste 0.6 -- -- 100
2017-12-09 08:00:00 9.9 0 Calma 4 Sur 0.8 -- -- 100
2017-12-09 07:00:00 9.8 2 Sudeste 6 Sudoeste 0.4 -- -- 100
2017-12-09 06:00:00 10.1 3 Oeste 6 Sudoeste 0.2 -- -- 100
2017-12-09 05:00:00 9.8 0 Calma 7 Noroeste 0.8 -- -- 100
2017-12-09 04:00:00 9.5 0 Calma 3 Noroeste 0 -- -- 100
2017-12-09 03:00:00 9.5 0 Calma 3 Norte 0.2 -- -- 100
2017-12-09 02:00:00 9.2 0 Calma 4 Nordeste 0 -- -- 100
2017-12-09 01:00:00 9.1 0 Calma 3 Noroeste 0 -- -- 100
2017-12-09 00:00:00 9.4 0 Calma 4 Noroeste 0 -- -- 100
2017-12-08 23:00:00 9.9 0 Calma 4 Sudeste 0 -- -- 100
2017-12-08 22:00:00 10.3 0 Calma 5 Norte 0 -- -- 100
2017-12-08 21:00:00 10.8 2 Norte 5 Noroeste 0 -- -- 100
2017-12-08 20:00:00 11.8 0 Calma 7 Noroeste 0 -- -- 100
2017-12-08 19:00:00 12.5 4 Noroeste 9 Oeste 0.2 -- -- 100
2017-12-08 18:00:00 12.5 3 Sudoeste 8 Sudoeste 0.2 -- -- 100
2017-12-08 17:00:00 12.3 3 Sudoeste 9 Oeste 0.6 -- -- 100
2017-12-08 16:00:00 12.1 4 Sudoeste 11 Oeste 1.6 -- -- 100
2017-12-08 15:00:00 11.9 5 Sudoeste 12 Sudoeste 1.2 -- -- 100
2017-12-08 14:00:00 11.7 4 Sudoeste 9 Sudoeste 2.8 -- -- 100
2017-12-08 13:00:00 11.4 3 Sudoeste 9 Sudoeste 1.4 -- -- 100
2017-12-08 12:00:00 11.1 4 Sudoeste 7 Sudoeste 1 -- -- 100
2017-12-08 11:00:00 10.9 3 Sudoeste 8 Sudoeste 1 -- -- 100
2017-12-08 10:00:00 10.6 2 Oeste 5 Oeste 0 -- -- 100
2017-12-08 09:00:00 10.2 0 Calma 3 Sudoeste 0 -- -- 100
2017-12-08 08:00:00 10 0 Calma 3 Sur 0.2 -- -- 100
2017-12-08 07:00:00 9.9 0 Calma 4 Noroeste 0 -- -- 100
2017-12-08 06:00:00 9.7 0 Calma 4 Norte 0 -- -- 100
2017-12-08 05:00:00 9.8 0 Calma 3 Sur 0 -- -- 100
2017-12-08 04:00:00 9.6 0 Calma 5 Noroeste 0 -- -- 100
2017-12-08 03:00:00 9.6 0 Calma 4 Noroeste 0 -- -- 100
2017-12-08 02:00:00 9.7 0 Calma 5 Norte 0.2 -- -- 99
2017-12-08 01:00:00 9.8 0 Calma 2 Este 1 -- -- 99
2017-12-08 00:00:00 9.7 0 Calma 2 Noroeste 1 -- -- 99
2017-12-07 23:00:00 9.8 0 Calma 7 Sudoeste 0.2 -- -- 99
2017-12-07 22:00:00 9.8 0 Calma 14 Sudoeste 0.6 -- -- 99
2017-12-07 21:00:00 9.7 3 Sudoeste 17 Sur 2.4 -- -- 98
2017-12-07 20:00:00 9.5 10 Sur 23 Sudoeste 4 -- -- 98
2017-12-07 19:00:00 9.1 6 Sudoeste 21 Sudoeste 1.6 -- -- 98
2017-12-07 18:00:00 8.6 4 Sudoeste 11 Sudoeste 1.8 -- -- 97
2017-12-07 17:00:00 8.4 4 Noroeste 13 Sudeste 1 -- -- 96
2017-12-07 16:00:00 8.3 4 Norte 10 Sur 0.8 -- -- 93
2017-12-07 15:00:00 8.8 3 Sur 15 Sudoeste 0.8 -- -- 89
2017-12-07 14:00:00 9 2 Sur 12 Sudoeste 0.2 -- -- 88
2017-12-07 13:00:00 10 4 Sudoeste 15 Sudoeste 0.2 -- -- 76
2017-12-07 12:00:00 10.1 6 Sur 15 Sur 0 -- -- 79
2017-12-07 11:00:00 9.2 0 Calma 15 Sudoeste 0 -- -- 87
2017-12-07 10:00:00 7.4 2 Oeste 9 Sur 0 -- -- 94
2017-12-07 09:00:00 6.5 2 Norte 5 Noroeste 0 -- -- 90
2017-12-07 08:00:00 6 0 Calma 6 Noroeste 0 -- -- 91
2017-12-07 07:00:00 5.6 2 Noroeste 6 Oeste 0 -- -- 90
2017-12-07 06:00:00 4.8 3 Norte 6 Noroeste 0 -- -- 94
2017-12-07 05:00:00 3.9 5 Noroeste 8 Noroeste 0 -- -- 96
2017-12-07 04:00:00 3.4 3 Noroeste 8 Noroeste 0 -- -- 96
2017-12-07 03:00:00 3.3 4 Noroeste 6 Noroeste 0 -- -- 95
2017-12-07 02:00:00 3.4 2 Norte 5 Noroeste 0 -- -- 92
2017-12-07 01:00:00 3.1 3 Noroeste 5 Noroeste 0 -- -- 91
2017-12-07 00:00:00 3.2 0 Calma 6 Noroeste 0 -- -- 90
2017-12-06 23:00:00 4.4 5 Noroeste 8 Noroeste 0 -- -- 87
2017-12-06 22:00:00 4.4 3 Noroeste 9 Noroeste 0 -- -- 86
2017-12-06 21:00:00 4.9 3 Norte 7 Noroeste 0 -- -- 84
2017-12-06 20:00:00 5.3 3 Noroeste 5 Noroeste 0 -- -- 81
2017-12-06 19:00:00 7.1 0 Calma 6 Sur 0 -- -- 72
2017-12-06 18:00:00 8.9 2 Sur 9 Sudoeste 0 -- -- 62
2017-12-06 17:00:00 10.4 4 Sur 20 Sudoeste 0 -- -- 54
2017-12-06 16:00:00 11.9 6 Sur 15 Sur 0 -- -- 49
2017-12-06 15:00:00 11.3 3 Sudoeste 13 Sudoeste 0 -- -- 54
2017-12-06 14:00:00 11.7 9 Sudoeste 18 Sudoeste 0 -- -- 51
2017-12-06 13:00:00 11.2 5 Sudoeste 13 Sudoeste 0 -- -- 55
2017-12-06 12:00:00 8.7 3 Sudoeste 8 Sudoeste 0 -- -- 73
2017-12-06 11:00:00 2.3 4 Noroeste 8 Noroeste 0 -- -- 95
2017-12-06 10:00:00 -0.2 5 Noroeste 9 Noroeste 0 -- -- 95
2017-12-06 09:00:00 -1.4 6 Noroeste 10 Noroeste 0 -- -- 95
2017-12-06 08:00:00 -1.8 4 Noroeste 9 Norte 0 -- -- 94
2017-12-06 07:00:00 -1.6 5 Noroeste 8 Noroeste 0 -- -- 94
2017-12-06 06:00:00 -1.5 3 Norte 8 Noroeste 0 -- -- 94
2017-12-06 05:00:00 -1.2 3 Noroeste 8 Noroeste 0 -- -- 93
2017-12-06 04:00:00 -0.4 5 Noroeste 9 Norte 0 -- -- 94
2017-12-06 03:00:00 -1.1 3 Norte 8 Noroeste 0 -- -- 93
2017-12-06 02:00:00 -0.5 4 Noroeste 8 Noroeste 0 -- -- 93
2017-12-06 01:00:00 -0.2 5 Noroeste 9 Noroeste 0 -- -- 93
2017-12-06 00:00:00 0.7 4 Norte 8 Norte 0 -- -- 90
2017-12-05 23:00:00 -0.5 4 Noroeste 10 Noroeste 0 -- -- 93
2017-12-05 22:00:00 0.7 0 Calma 13 Nordeste 0 -- -- 89
2017-12-05 21:00:00 2.2 5 Nordeste 13 Nordeste 0 -- -- 85
2017-12-05 20:00:00 3.9 7 Nordeste 15 Nordeste 0 -- -- 77
2017-12-05 19:00:00 5.1 6 Nordeste 10 Este 0 -- -- 79
2017-12-05 18:00:00 8.2 0 Calma 6 Sudoeste 0 -- -- 68
2017-12-05 17:00:00 11.1 4 Sudoeste 11 Sudoeste 0 -- -- 53
2017-12-05 16:00:00 12.6 5 Oeste 13 Sudoeste 0 -- -- 45
2017-12-05 15:00:00 13.1 5 Oeste 14 Sudoeste 0 -- -- 45
2017-12-05 14:00:00 12.9 6 Sudoeste 10 Sudoeste 0 -- -- 46
2017-12-05 13:00:00 11.8 5 Sudoeste 10 Sudoeste 0 -- -- 55
2017-12-05 12:00:00 9.4 4 Noroeste 6 Nordeste 0 -- -- 61
2017-12-05 11:00:00 6.4 4 Nordeste 18 Nordeste 0 -- -- 76
2017-12-05 10:00:00 2.7 5 Norte 12 Este 0 -- -- 87
2017-12-05 09:00:00 0.9 4 Norte 21 Este 0 -- -- 88
2017-12-05 08:00:00 2.4 8 Nordeste 24 Este 0 -- -- 83
2017-12-05 07:00:00 5.1 13 Este 32 Este 0 -- -- 75
2017-12-05 06:00:00 5.3 19 Este 32 Este 0 -- -- 75
2017-12-05 05:00:00 5.8 18 Este 32 Este 0 -- -- 72
2017-12-05 04:00:00 5.6 18 Este 32 Este 0 -- -- 72
2017-12-05 03:00:00 6.1 17 Este 28 Este 0 -- -- 70
2017-12-05 02:00:00 6 11 Este 23 Nordeste 0 -- -- 71
2017-12-05 01:00:00 6.2 12 Este 21 Este 0 -- -- 71
2017-12-05 00:00:00 5 3 Noroeste 20 Este 0 -- -- 74
2017-12-04 23:00:00 6.2 10 Este 20 Este 0 -- -- 70
2017-12-04 22:00:00 2.8 3 Norte 12 Este 0 -- -- 88
2017-12-04 21:00:00 1.3 3 Norte 9 Noroeste 0 -- -- 87
2017-12-04 20:00:00 3.4 6 Norte 11 Este 0 -- -- 84
2017-12-04 19:00:00 4.2 4 Norte 8 Norte 0 -- -- 82
2017-12-04 18:00:00 8.7 4 Nordeste 8 Nordeste 0 -- -- 63
2017-12-04 17:00:00 10.5 6 Noroeste 12 Noroeste 0 -- -- 55
2017-12-04 16:00:00 12 5 Noroeste 11 Sudoeste 0 -- -- 47
2017-12-04 15:00:00 12.5 4 Oeste 17 Sudoeste 0 -- -- 46
2017-12-04 14:00:00 12.6 6 Sudoeste 11 Sudoeste 0 -- -- 49
2017-12-04 13:00:00 11.6 4 Este 23 Este 0 -- -- 50
2017-12-04 12:00:00 9.4 15 Este 30 Este 0 -- -- 57
2017-12-04 11:00:00 8.2 11 Este 21 Este 0 -- -- 60
2017-12-04 10:00:00 6.4 8 Este 21 Este 0 -- -- 64
2017-12-04 09:00:00 5.4 10 Este 19 Este 0 -- -- 67
2017-12-04 08:00:00 2.9 0 Calma 16 Este 0 -- -- 77
2017-12-04 07:00:00 5.4 8 Este 23 Este 0 -- -- 66
2017-12-04 06:00:00 5.3 14 Este 31 Este 0 -- -- 67
2017-12-04 05:00:00 5.2 20 Este 34 Este 0 -- -- 72
2017-12-04 04:00:00 5.2 15 Este 26 Este 0 -- -- 73
2017-12-04 03:00:00 5.4 9 Este 26 Este 0 -- -- 73
2017-12-04 02:00:00 5.7 14 Este 29 Este 0 -- -- 76
2017-12-04 01:00:00 5.8 14 Este 25 Este 0 -- -- 75
2017-12-04 00:00:00 6.1 10 Este 24 Sudeste 0 -- -- 73
2017-12-03 23:00:00 6.4 13 Este 28 Este 0 -- -- 73
2017-12-03 22:00:00 6.1 16 Este 30 Este 0 -- -- 74
2017-12-03 21:00:00 6.4 10 Este 24 Este 0 -- -- 73
2017-12-03 20:00:00 6 10 Este 23 Este 0 -- -- 73
2017-12-03 19:00:00 6 4 Este 11 Este 0 -- -- 72
2017-12-03 18:00:00 8.6 6 Este 16 Sudeste 0 -- -- 63
2017-12-03 17:00:00 10.1 9 Este 23 Sudeste 0 -- -- 57
2017-12-03 16:00:00 11 12 Este 28 Nordeste 0 -- -- 53
2017-12-03 15:00:00 11.3 17 Este 32 Este 0 -- -- 50
2017-12-03 14:00:00 11.2 11 Este 24 Este 0 -- -- 53
2017-12-03 13:00:00 10.1 5 Este 30 Este 0 -- -- 55
2017-12-03 12:00:00 8.7 8 Este 20 Este 0 -- -- 61
2017-12-03 11:00:00 6.3 5 Sudeste 14 Sudeste 0 -- -- 72
2017-12-03 10:00:00 1.7 0 Calma 7 Este 0 -- -- 92
2017-12-03 09:00:00 2 2 Este 11 Nordeste 0 -- -- 82
2017-12-03 08:00:00 1.1 0 Calma 6 Sur 0 -- -- 94
2017-12-03 07:00:00 1.2 0 Calma 8 Sudeste 0 -- -- 91
2017-12-03 06:00:00 3.5 3 Norte 13 Noroeste 0 -- -- 84
2017-12-03 05:00:00 2.4 2 Nordeste 9 Noroeste 0 -- -- 83
2017-12-03 04:00:00 2.4 3 Norte 12 Sudeste 0 -- -- 87
2017-12-03 03:00:00 4.1 2 Nordeste 13 Este 0 -- -- 83
2017-12-03 02:00:00 3.5 6 Este 13 Este 0 -- -- 87
2017-12-03 01:00:00 3.8 2 Nordeste 9 Nordeste 0 -- -- 85
2017-12-03 00:00:00 5 4 Nordeste 19 Nordeste 0 -- -- 82
2017-12-02 23:00:00 4.9 8 Nordeste 18 Este 0 -- -- 82
2017-12-02 22:00:00 3.9 3 Nordeste 10 Este 0 -- -- 83
2017-12-02 21:00:00 2.6 2 Noroeste 5 Norte 0 -- -- 85
2017-12-02 20:00:00 3.7 2 Nordeste 8 Norte 0 -- -- 74
2017-12-02 19:00:00 5.5 0 Calma 17 Noroeste 0 -- -- 70
2017-12-02 18:00:00 7.3 4 Nordeste 24 Nordeste 0 -- -- 63
2017-12-02 17:00:00 8.4 9 Nordeste 25 Nordeste 0 -- -- 58
2017-12-02 16:00:00 9.1 8 Nordeste 30 Este 0 -- -- 61
2017-12-02 15:00:00 9.3 14 Este 30 Este 0 -- -- 60
2017-12-02 14:00:00 9.1 13 Este 37 Este 0 -- -- 62
2017-12-02 13:00:00 8.4 15 Este 36 Este 0 -- -- 64
2017-12-02 12:00:00 7.8 6 Nordeste 28 Nordeste 0 -- -- 69
2017-12-02 11:00:00 5.4 9 Este 20 Este 0 -- -- 88
2017-12-02 10:00:00 1.7 0 Calma 8 Norte 0 -- -- 97
2017-12-02 09:00:00 -0.7 3 Norte 5 Noroeste 0 -- -- 96
2017-12-02 08:00:00 -0.2 0 Calma 5 Noroeste 0 -- -- 96
2017-12-02 07:00:00 -1.2 0 Calma 4 Noroeste 0 -- -- 95
2017-12-02 06:00:00 -1.4 0 Calma 8 Norte 0 -- -- 97
2017-12-02 05:00:00 -1.1 3 Norte 8 Norte 0 -- -- 95
2017-12-02 04:00:00 -2.1 3 Norte 7 Norte 0 -- -- 95
2017-12-02 03:00:00 -1.2 2 Norte 8 Este 0 -- -- 95
2017-12-02 02:00:00 -1.3 0 Calma 8 Norte 0 -- -- 95
2017-12-02 01:00:00 -0.8 0 Calma 5 Nordeste 0 -- -- 91
2017-12-02 00:00:00 0.9 0 Calma 9 Nordeste 0 -- -- 88
2017-12-01 23:00:00 2 3 Norte 6 Norte 0 -- -- 87
2017-12-01 22:00:00 2.6 3 Nordeste 8 Este 0 -- -- 87
2017-12-01 21:00:00 2.9 2 Nordeste 8 Nordeste 0 -- -- 85
2017-12-01 20:00:00 3.8 3 Este 15 Nordeste 0 -- -- 82
2017-12-01 19:00:00 4.8 10 Este 24 Este 0 -- -- 77
2017-12-01 18:00:00 6.4 8 Nordeste 27 Este 0 -- -- 76
2017-12-01 17:00:00 7.5 7 Nordeste 28 Noroeste 0 -- -- 71
2017-12-01 16:00:00 8.9 10 Norte 34 Norte 0 -- -- 71
2017-12-01 15:00:00 8.9 11 Norte 28 Nordeste 0 -- -- 74
2017-12-01 14:00:00 8.3 9 Norte 35 Norte 0 -- -- 80
2017-12-01 13:00:00 7.7 8 Norte 23 Noroeste 0.2 -- -- 95
2017-12-01 12:00:00 7.3 5 Norte 22 Norte 0 -- -- 99
2017-12-01 11:00:00 5.4 2 Sudeste 6 Sudoeste 0.2 -- -- 100
2017-12-01 10:00:00 4.6 2 Sudoeste 5 Sudoeste 0 -- -- 100
2017-12-01 09:00:00 3.7 0 Calma 5 Sur 0 -- -- 100
2017-12-01 08:00:00 3 0 Calma 5 Noroeste 0 -- -- 99
2017-12-01 07:00:00 2.4 0 Calma 5 Norte 0 -- -- 99
2017-12-01 06:00:00 1.5 0 Calma 3 Noroeste 0.2 -- -- 99
2017-12-01 05:00:00 1 0 Calma 8 Noroeste 0 -- -- 99
2017-12-01 04:00:00 -0.3 0 Calma 8 Noroeste 0 -- -- 98
2017-12-01 03:00:00 -1.7 0 Calma 4 Noroeste 0 -- -- 97
2017-12-01 02:00:00 -2 3 Noroeste 5 Noroeste 0 -- -- 97
2017-12-01 01:00:00 -1.6 0 Calma 5 Noroeste 0 -- -- 97
2017-12-01 00:00:00 -1.2 2 Oeste 4 Noroeste 0 -- -- 95
2017-11-30 23:00:00 -0.2 2 Sur 8 Norte 0 -- -- 94
2017-11-30 22:00:00 0.5 3 Norte 7 Sudeste 0 -- -- 96
2017-11-30 21:00:00 0.5 3 Norte 7 Noroeste 0 -- -- 92
2017-11-30 20:00:00 1.9 0 Calma 5 Nordeste 0 -- -- 88
2017-11-30 19:00:00 5.2 3 Norte 7 Nordeste 0 -- -- 79
2017-11-30 18:00:00 6.9 3 Norte 18 Norte 0 -- -- 73
2017-11-30 17:00:00 8.1 3 Norte 17 Noroeste 0 -- -- 66
2017-11-30 16:00:00 8.9 6 Norte 21 Noroeste 0 -- -- 61
2017-11-30 15:00:00 9.4 7 Norte 18 Norte 0 -- -- 60
2017-11-30 14:00:00 9.9 5 Nordeste 19 Norte 0 -- -- 58
2017-11-30 13:00:00 9.5 9 Este 28 Nordeste 0 -- -- 60
2017-11-30 12:00:00 8.2 7 Nordeste 29 Nordeste 0 -- -- 66
2017-11-30 11:00:00 6.5 7 Este 16 Este 0 -- -- 75
2017-11-30 10:00:00 3.5 2 Sur 6 Norte 0 -- -- 88
2017-11-30 09:00:00 1 3 Noroeste 9 Este 0 -- -- 89
2017-11-30 08:00:00 2.1 3 Este 17 Este 0 -- -- 83
2017-11-30 07:00:00 3.7 7 Este 23 Este 0 -- -- 80
2017-11-30 06:00:00 3.6 10 Este 22 Nordeste 0 -- -- 81
2017-11-30 05:00:00 4 9 Este 21 Este 0 -- -- 80
2017-11-30 04:00:00 3.7 11 Este 26 Este 0 -- -- 83
2017-11-30 03:00:00 3.6 15 Este 28 Este 0 -- -- 84
2017-11-30 02:00:00 3.4 5 Este 24 Este 0 -- -- 83
2017-11-30 01:00:00 3.4 7 Este 17 Este 0 -- -- 83
2017-11-30 00:00:00 3.9 8 Este 28 Este 0 -- -- 81
2017-11-29 23:00:00 3.6 3 Este 23 Este 0 -- -- 81
2017-11-29 22:00:00 3.8 10 Este 22 Este 0 -- -- 83
2017-11-29 21:00:00 3.7 5 Este 14 Este 0 -- -- 84
2017-11-29 20:00:00 3.6 4 Norte 10 Noroeste 0 -- -- 85
2017-11-29 19:00:00 4.8 0 Calma 16 Este 0 -- -- 76
2017-11-29 18:00:00 6 3 Nordeste 15 Nordeste 0 -- -- 72
2017-11-29 17:00:00 7.6 13 Norte 26 Noroeste 0 -- -- 68
2017-11-29 16:00:00 8.9 9 Nordeste 25 Este 0 -- -- 59
2017-11-29 15:00:00 8.4 12 Norte 27 Norte 0 -- -- 63
2017-11-29 14:00:00 8.7 11 Nordeste 37 Este 0 -- -- 63
2017-11-29 13:00:00 8.8 12 Norte 32 Norte 0 -- -- 60
2017-11-29 12:00:00 8.4 11 Nordeste 28 Nordeste 0 -- -- 64
2017-11-29 11:00:00 8 11 Nordeste 31 Este 0 -- -- 64
2017-11-29 10:00:00 6.2 6 Este 18 Este 0 -- -- 81
2017-11-29 09:00:00 5.1 3 Norte 17 Nordeste 0 -- -- 88
2017-11-29 08:00:00 3.6 0 Calma 14 Este 0 -- -- 89
2017-11-29 07:00:00 4.4 6 Este 17 Este 0 -- -- 86
2017-11-29 06:00:00 4.6 4 Norte 12 Nordeste 0 -- -- 87
2017-11-29 05:00:00 4.9 0 Calma 17 Nordeste 0 -- -- 85
2017-11-29 04:00:00 5.6 6 Este 25 Este 0 -- -- 84
2017-11-29 03:00:00 7.3 10 Nordeste 29 Este 0 -- -- 78
2017-11-29 02:00:00 7.6 15 Este 28 Este 0 -- -- 82
2017-11-29 01:00:00 7 4 Nordeste 15 Este 0 -- -- 85
2017-11-29 00:00:00 7.2 6 Sudeste 15 Este 0 -- -- 86
2017-11-28 23:00:00 7.7 4 Nordeste 19 Norte 0 -- -- 83
2017-11-28 22:00:00 7.9 9 Nordeste 22 Este 0 -- -- 82
2017-11-28 21:00:00 8 8 Nordeste 21 Este 0 -- -- 81
2017-11-28 20:00:00 7.8 14 Este 23 Este 0 -- -- 81
2017-11-28 19:00:00 8.1 7 Nordeste 16 Este 0 -- -- 78
2017-11-28 18:00:00 9.3 4 Este 16 Nordeste 0 -- -- 72
2017-11-28 17:00:00 10.9 7 Noroeste 17 Noroeste 0 -- -- 65
2017-11-28 16:00:00 12.8 6 Noroeste 15 Sudoeste 0 -- -- 58
2017-11-28 15:00:00 13.9 8 Sudoeste 13 Sudoeste 0 -- -- 53
2017-11-28 14:00:00 13.1 4 Sudoeste 12 Oeste 0 -- -- 53
2017-11-28 13:00:00 12.1 2 Oeste 8 Oeste 0 -- -- 57
2017-11-28 12:00:00 9.5 0 Calma 5 Noroeste 0 -- -- 74
2017-11-28 11:00:00 4.6 0 Calma 6 Noroeste 0 -- -- 93
2017-11-28 10:00:00 0.7 3 Norte 8 Nordeste 0 -- -- 98
2017-11-28 09:00:00 -0.8 5 Norte 9 Nordeste 0 -- -- 97
2017-11-28 08:00:00 -1.5 5 Noroeste 9 Nordeste 0 -- -- 97
2017-11-28 07:00:00 -1.6 5 Noroeste 8 Noroeste 0 -- -- 96
2017-11-28 06:00:00 -1.3 4 Noroeste 8 Noroeste 0 -- -- 96
2017-11-28 05:00:00 -0.8 4 Noroeste 8 Noroeste 0 -- -- 95
2017-11-28 04:00:00 -0.9 4 Noroeste 9 Noroeste 0 -- -- 95
2017-11-28 03:00:00 -0.7 5 Norte 10 Norte 0 -- -- 94
2017-11-28 02:00:00 -0.1 5 Norte 13 Norte 0 -- -- 96
2017-11-28 01:00:00 -0.3 4 Noroeste 9 Noroeste 0 -- -- 93
2017-11-28 00:00:00 0.2 4 Norte 12 Este 0 -- -- 92
2017-11-27 23:00:00 0.3 5 Norte 10 Norte 0 -- -- 92
2017-11-27 22:00:00 0.9 5 Norte 12 Norte 0 -- -- 88
2017-11-27 21:00:00 2 4 Norte 10 Nordeste 0 -- -- 86
2017-11-27 20:00:00 3.4 3 Norte 12 Nordeste 0 -- -- 84
2017-11-27 19:00:00 4.8 3 Noroeste 5 Noroeste 0 -- -- 85
2017-11-27 18:00:00 8.8 0 Calma 6 Oeste 0 -- -- 70
2017-11-27 17:00:00 11.6 4 Oeste 10 Oeste 0 -- -- 54
2017-11-27 16:00:00 13.2 6 Oeste 13 Oeste 0 -- -- 43
2017-11-27 15:00:00 13.7 6 Sudoeste 17 Sudoeste 0 -- -- 38
2017-11-27 14:00:00 13.8 5 Oeste 13 Sudoeste 0 -- -- 45
2017-11-27 13:00:00 13 4 Sudoeste 17 Este 0 -- -- 49
2017-11-27 12:00:00 10.6 9 Este 24 Este 0 -- -- 59
2017-11-27 11:00:00 8.1 10 Este 22 Este 0 -- -- 64
2017-11-27 10:00:00 3.2 6 Norte 30 Este 0 -- -- 82
2017-11-27 09:00:00 3 9 Nordeste 29 Este 0 -- -- 83
2017-11-27 08:00:00 2.4 6 Nordeste 19 Este 0 -- -- 85
2017-11-27 07:00:00 1.9 6 Norte 19 Nordeste 0 -- -- 85
2017-11-27 06:00:00 2.7 6 Nordeste 25 Este 0 -- -- 84
2017-11-27 05:00:00 2.5 6 Norte 21 Este 0 -- -- 86
2017-11-27 04:00:00 5.1 11 Este 28 Este 0 -- -- 74
2017-11-27 03:00:00 6.6 15 Este 29 Este 0 -- -- 69
2017-11-27 02:00:00 7.1 17 Este 33 Este 0 -- -- 67
2017-11-27 01:00:00 7.8 18 Este 32 Este 0 -- -- 64
2017-11-27 00:00:00 7.6 16 Este 35 Este 0 -- -- 66
2017-11-26 23:00:00 7.8 17 Este 31 Este 0 -- -- 66
2017-11-26 22:00:00 8.1 17 Este 31 Este 0 -- -- 67
2017-11-26 21:00:00 8 12 Este 25 Este 0 -- -- 68
2017-11-26 20:00:00 7.4 8 Este 20 Este 0 -- -- 72
2017-11-26 19:00:00 8.4 11 Este 21 Este 0 -- -- 68
2017-11-26 18:00:00 9.8 8 Este 20 Este 0 -- -- 67
2017-11-26 17:00:00 12 3 Este 8 Sur 0 -- -- 60
2017-11-26 16:00:00 12.9 3 Nordeste 15 Este 0 -- -- 56
2017-11-26 15:00:00 12.2 12 Este 28 Este 0 -- -- 57
2017-11-26 14:00:00 11.1 18 Este 30 Este 0 -- -- 58
2017-11-26 13:00:00 10 12 Este 30 Este 0 -- -- 62
2017-11-26 12:00:00 8.8 16 Este 32 Nordeste 0 -- -- 66
2017-11-26 11:00:00 7.8 19 Este 35 Este 0 -- -- 69
2017-11-26 10:00:00 6.6 20 Este 41 Este 0 -- -- 75
2017-11-26 09:00:00 5.7 24 Este 47 Este 0 -- -- 79
2017-11-26 08:00:00 5.9 29 Este 46 Este 0 -- -- 80
2017-11-26 07:00:00 6.2 27 Este 43 Este 0 -- -- 79
2017-11-26 06:00:00 6.8 21 Este 38 Este 0 -- -- 77
2017-11-26 05:00:00 6.9 21 Este 39 Este 0 -- -- 77
2017-11-26 04:00:00 7.5 25 Este 41 Este 0 -- -- 75
2017-11-26 03:00:00 7.5 22 Este 37 Nordeste 0 -- -- 77
2017-11-26 02:00:00 6.9 23 Este 41 Este 0 -- -- 78
2017-11-26 01:00:00 7 24 Este 46 Este 0 -- -- 78
2017-11-26 00:00:00 7.2 24 Este 45 Este 0 -- -- 77
2017-11-25 23:00:00 7 29 Este 49 Este 0 -- -- 77
2017-11-25 22:00:00 7.3 24 Este 42 Este 0 -- -- 78
2017-11-25 21:00:00 7.2 24 Este 41 Este 0 -- -- 79
2017-11-25 20:00:00 7.4 25 Este 44 Este 0 -- -- 79
2017-11-25 19:00:00 7.8 24 Este 41 Este 0 -- -- 78
2017-11-25 18:00:00 9 23 Este 45 Este 0 -- -- 75
2017-11-25 17:00:00 10.6 20 Este 42 Este 0 -- -- 69
2017-11-25 16:00:00 12.1 17 Este 37 Este 0 -- -- 64
2017-11-25 15:00:00 12.4 19 Este 38 Nordeste 0 -- -- 64
2017-11-25 14:00:00 11.9 20 Este 39 Nordeste 0 -- -- 67
2017-11-25 13:00:00 11.7 9 Este 35 Este 0 -- -- 68
2017-11-25 12:00:00 10.5 17 Este 39 Este 0 -- -- 74
2017-11-25 11:00:00 9.4 21 Este 35 Este 0 -- -- 77
2017-11-25 10:00:00 8.5 20 Este 41 Este 0 -- -- 83
2017-11-25 09:00:00 8.1 17 Este 36 Este 0 -- -- 83
2017-11-25 08:00:00 8.4 12 Nordeste 31 Nordeste 0 -- -- 87
2017-11-25 07:00:00 8.7 7 Noroeste 25 Norte 0 -- -- 88
2017-11-25 06:00:00 8.7 4 Nordeste 31 Este 0 -- -- 86
2017-11-25 05:00:00 9.2 5 Noroeste 27 Sudeste 0 -- -- 87
2017-11-25 04:00:00 9.8 8 Nordeste 28 Este 0 -- -- 87
2017-11-25 03:00:00 10.2 8 Nordeste 19 Nordeste 0 -- -- 91
2017-11-25 02:00:00 10.5 12 Nordeste 27 Nordeste 0.2 -- -- 93
2017-11-25 01:00:00 10.4 9 Nordeste 21 Este 0.4 -- -- 95
2017-11-25 00:00:00 10.6 7 Nordeste 21 Noroeste 0.8 -- -- 96
2017-11-24 23:00:00 11.1 5 Nordeste 14 Nordeste 0.8 -- -- 98
2017-11-24 22:00:00 11.6 0 Calma 7 Nordeste 0.6 -- -- 98
2017-11-24 21:00:00 11.8 2 Nordeste 13 Noroeste 1 -- -- 98
2017-11-24 20:00:00 12.4 5 Norte 10 Noroeste 1.8 -- -- 99
2017-11-24 19:00:00 12.8 0 Calma 5 Noroeste 3 -- -- 99
2017-11-24 18:00:00 13 5 Noroeste 12 Sudoeste 1.4 -- -- 98
2017-11-24 17:00:00 13.1 7 Sudoeste 15 Sur 4.2 -- -- 98
2017-11-24 16:00:00 13.6 5 Sur 13 Sur 0.6 -- -- 98
2017-11-24 15:00:00 13.6 3 Sur 10 Sur 0.8 -- -- 99
2017-11-24 14:00:00 13.1 3 Sur 8 Oeste 0.2 -- -- 99
2017-11-24 13:00:00 13 5 Sudoeste 11 Sur 0.2 -- -- 98
2017-11-24 12:00:00 13.4 2 Sudoeste 6 Sudoeste 0.4 -- -- 99
2017-11-24 11:00:00 13.1 4 Sudoeste 8 Sudoeste 0 -- -- 100
2017-11-24 10:00:00 12.6 3 Oeste 13 Oeste 0 -- -- 100
2017-11-24 09:00:00 12.6 5 Oeste 12 Oeste 1.6 -- -- 100
2017-11-24 08:00:00 12.6 2 Sur 4 Sudoeste 0.4 -- -- 100
2017-11-24 07:00:00 12.6 2 Oeste 5 Oeste 0.6 -- -- 100
2017-11-24 06:00:00 12.5 0 Calma 4 Oeste 1.8 -- -- 99
2017-11-24 05:00:00 12.4 0 Calma -- -- 0.4 -- -- 99
2017-11-24 04:00:00 12.5 0 Calma 4 Este 1 -- -- 99
2017-11-24 03:00:00 12.6 3 Nordeste 4 Nordeste 1 -- -- 99
2017-11-24 02:00:00 12.7 0 Calma 4 Nordeste 1.2 -- -- 99
2017-11-24 01:00:00 12.8 0 Calma 3 Sur 0.6 -- -- 98
2017-11-24 00:00:00 13 3 Nordeste 5 Nordeste 0.2 -- -- 98
2017-11-23 23:00:00 13.4 2 Sur 10 Sudoeste 0.2 -- -- 97
2017-11-23 22:00:00 13.4 3 Sur 11 Sur 3.2 -- -- 98
2017-11-23 21:00:00 13 0 Calma 6 Nordeste 0.2 -- -- 98
2017-11-23 20:00:00 13 0 Calma 17 Oeste 0.6 -- -- 97
2017-11-23 19:00:00 13.6 11 Oeste 31 Oeste 4.6 -- -- 96
2017-11-23 18:00:00 14.4 12 Sudoeste 28 Sudoeste 3.8 -- -- 95
2017-11-23 17:00:00 14.8 15 Sudoeste 35 Sudoeste 0.2 -- -- 93
2017-11-23 16:00:00 16.2 11 Sur 31 Sudoeste 0 -- -- 84
2017-11-23 15:00:00 17 15 Sudoeste 30 Sudoeste 0 -- -- 78
2017-11-23 14:00:00 16.6 10 Sudoeste 26 Sudoeste 0 -- -- 82
2017-11-23 13:00:00 15.3 11 Sudoeste 26 Sudoeste 0 -- -- 88
2017-11-23 12:00:00 14.5 11 Sur 23 Sudoeste 0 -- -- 90
2017-11-23 11:00:00 13.7 8 Sur 20 Sur 0 -- -- 96
2017-11-23 10:00:00 12.8 6 Sur 17 Sur 0 -- -- 98
2017-11-23 09:00:00 12.2 5 Sur 18 Sudoeste 0 -- -- 98
2017-11-23 08:00:00 12 5 Sur 14 Sudoeste 0 -- -- 98
2017-11-23 07:00:00 12.4 7 Sudoeste 19 Sudoeste 0 -- -- 97
2017-11-23 06:00:00 12.4 7 Sur 19 Sur 0 -- -- 97
2017-11-23 05:00:00 13.1 10 Sudoeste 22 Sudoeste 0 -- -- 98
2017-11-23 04:00:00 13.4 6 Sudoeste 20 Sudoeste 0 -- -- 98
2017-11-23 03:00:00 13.2 8 Sudoeste 22 Sudoeste 0.2 -- -- 98
2017-11-23 02:00:00 12.9 6 Sur 26 Sur 0.4 -- -- 97
2017-11-23 01:00:00 12.9 12 Sur 37 Sur 3.4 -- -- 95
2017-11-23 00:00:00 13.3 13 Sudoeste 29 Sur 0 -- -- 94
2017-11-22 23:00:00 13.5 12 Sur 38 Sudoeste 0.8 -- -- 95
2017-11-22 22:00:00 13.8 17 Sudoeste 41 Sudoeste 4.8 -- -- 95
2017-11-22 21:00:00 13.7 17 Sudoeste 41 Sudoeste 12.8 -- -- 94
2017-11-22 20:00:00 14.1 14 Sudoeste 53 Sudoeste 3.4 -- -- 85
2017-11-22 19:00:00 16 22 Sudoeste 55 Sudoeste 0 -- -- 63
2017-11-22 18:00:00 16.6 19 Sudoeste 59 Sudoeste 0 -- -- 49
2017-11-22 17:00:00 17.3 22 Sur 51 Sur 0 -- -- 46
2017-11-22 16:00:00 17.6 19 Sur 46 Sudoeste 0 -- -- 46
2017-11-22 15:00:00 17.6 21 Sur 52 Sur 0 -- -- 44
2017-11-22 14:00:00 16.1 14 Sur 40 Sur 0 -- -- 54
2017-11-22 13:00:00 15.8 16 Sur 39 Sudoeste 0 -- -- 56
2017-11-22 12:00:00 15.5 13 Sur 45 Sudoeste 0 -- -- 56
2017-11-22 11:00:00 15.9 13 Sur 30 Sudoeste 0 -- -- 51
2017-11-22 10:00:00 13.6 6 Sur 28 Sur 0 -- -- 58
2017-11-22 09:00:00 13.2 10 Sudoeste 21 Sudoeste 0 -- -- 57
2017-11-22 08:00:00 13.1 6 Sur 26 Sur 0 -- -- 57
2017-11-22 07:00:00 13.4 13 Sur 39 Sur 0 -- -- 56
2017-11-22 06:00:00 11.4 6 Sur 17 Sur 0 -- -- 65
2017-11-22 05:00:00 11.9 5 Sur 26 Sudoeste 0 -- -- 66
2017-11-22 04:00:00 12.7 8 Sur 32 Sur 0 -- -- 65
2017-11-22 03:00:00 12.3 7 Sudoeste 19 Sur 0 -- -- 69
2017-11-22 02:00:00 12.3 6 Sur 25 Sur 0 -- -- 71
2017-11-22 01:00:00 10.8 5 Sudoeste 21 Sudoeste 0 -- -- 86
2017-11-22 00:00:00 4.8 3 Noroeste 6 Noroeste 0 -- -- 94
2017-11-21 23:00:00 5 0 Calma 6 Sur 0 -- -- 90
2017-11-21 22:00:00 5.4 2 Este 4 Este 0 -- -- 89
2017-11-21 21:00:00 6.5 3 Este 8 Noroeste 0 -- -- 83
2017-11-21 20:00:00 7.7 3 Este 6 Este 0 -- -- 81
2017-11-21 19:00:00 11.2 2 Oeste 9 Sudoeste 0 -- -- 68
2017-11-21 18:00:00 14.6 2 Sudeste 14 Sudoeste 0 -- -- 56
2017-11-21 17:00:00 16.9 9 Sudoeste 17 Sur 0 -- -- 45
2017-11-21 16:00:00 18.2 5 Sur 16 Sudoeste 0 -- -- 42
2017-11-21 15:00:00 18.4 7 Sudoeste 24 Sudoeste 0 -- -- 41
2017-11-21 14:00:00 19.4 7 Sur 27 Sudoeste 0 -- -- 39
2017-11-21 13:00:00 18.8 6 Sudoeste 19 Sudoeste 0 -- -- 41
2017-11-21 12:00:00 16.9 7 Sur 15 Sudoeste 0 -- -- 47
2017-11-21 11:00:00 12.6 3 Norte 11 Nordeste 0 -- -- 65
2017-11-21 10:00:00 7 4 Norte 11 Este 0 -- -- 79
2017-11-21 09:00:00 3.1 5 Noroeste 10 Nordeste 0 -- -- 90
2017-11-21 08:00:00 2.3 6 Noroeste 12 Noroeste 0 -- -- 95
2017-11-21 07:00:00 2.2 7 Noroeste 11 Noroeste 0 -- -- 95
2017-11-21 06:00:00 1.8 7 Noroeste 11 Noroeste 0 -- -- 94
2017-11-21 05:00:00 1.8 8 Noroeste 10 Noroeste 0 -- -- 94
2017-11-21 04:00:00 2.3 5 Noroeste 10 Noroeste 0 -- -- 94
2017-11-21 03:00:00 2.1 6 Noroeste 9 Noroeste 0 -- -- 94
2017-11-21 02:00:00 2 6 Noroeste 10 Noroeste 0 -- -- 94
2017-11-21 01:00:00 2.7 6 Noroeste 9 Noroeste 0 -- -- 93
2017-11-21 00:00:00 2.7 5 Noroeste 9 Noroeste 0 -- -- 92
2017-11-20 23:00:00 3.2 6 Noroeste 9 Noroeste 0 -- -- 90
2017-11-20 22:00:00 3.5 4 Noroeste 8 Noroeste 0 -- -- 92
2017-11-20 21:00:00 3.9 5 Noroeste 9 Norte 0 -- -- 89
2017-11-20 20:00:00 5.4 5 Noroeste 9 Noroeste 0 -- -- 88
2017-11-20 19:00:00 8.1 3 Noroeste 5 Noroeste 0 -- -- 80
2017-11-20 18:00:00 13 0 Calma 8 Sur 0 -- -- 65
2017-11-20 17:00:00 16.1 3 Sur 8 Sudoeste 0 -- -- 51
2017-11-20 16:00:00 18.1 3 Oeste 16 Sudoeste 0 -- -- 38
2017-11-20 15:00:00 19.5 7 Sudoeste 17 Sudoeste 0 -- -- 31
2017-11-20 14:00:00 19.4 9 Sudoeste 20 Sudoeste 0 -- -- 31
2017-11-20 13:00:00 18.7 6 Sudoeste 12 Sur 0 -- -- 32
2017-11-20 12:00:00 15.1 0 Calma 7 Oeste 0 -- -- 56
2017-11-20 11:00:00 10.3 0 Calma 12 Este 0 -- -- 63
2017-11-20 10:00:00 6.5 4 Norte 16 Nordeste 0 -- -- 67
2017-11-20 09:00:00 2.9 4 Norte 12 Norte 0 -- -- 81
2017-11-20 08:00:00 3.2 4 Norte 14 Nordeste 0 -- -- 80
2017-11-20 07:00:00 3.4 4 Norte 13 Este 0 -- -- 80
2017-11-20 06:00:00 4.2 5 Norte 17 Norte 0 -- -- 77
2017-11-20 05:00:00 4.4 5 Norte 14 Norte 0 -- -- 83
2017-11-20 04:00:00 5.3 6 Norte 20 Nordeste 0 -- -- 82
2017-11-20 03:00:00 4.6 6 Nordeste 15 Nordeste 0 -- -- 83
2017-11-20 02:00:00 4.4 4 Norte 10 Norte 0 -- -- 86
2017-11-20 01:00:00 4.1 3 Norte 9 Norte 0 -- -- 89
2017-11-20 00:00:00 4.9 4 Noroeste 9 Norte 0 -- -- 88
2017-11-19 23:00:00 4.4 4 Norte 15 Nordeste 0 -- -- 92
2017-11-19 22:00:00 5.1 4 Norte 13 Nordeste 0 -- -- 89
2017-11-19 21:00:00 6.5 5 Norte 14 Este 0 -- -- 89
2017-11-19 20:00:00 8.8 4 Norte 16 Este 0 -- -- 79
2017-11-19 19:00:00 10.3 2 Norte 7 Nordeste 0 -- -- 81
2017-11-19 18:00:00 15.5 0 Calma 8 Sudoeste 0 -- -- 62
2017-11-19 17:00:00 17.7 3 Sudoeste 10 Sudoeste 0 -- -- 50
2017-11-19 16:00:00 19.8 5 Sudoeste 13 Sudoeste 0 -- -- 44
2017-11-19 15:00:00 19.7 8 Sudoeste 18 Sudoeste 0 -- -- 46
2017-11-19 14:00:00 19.9 5 Sudoeste 10 Sudoeste 0 -- -- 41
2017-11-19 13:00:00 18.2 6 Sudoeste 10 Sudoeste 0 -- -- 47
2017-11-19 12:00:00 16.1 0 Calma 5 Nordeste 0 -- -- 52
2017-11-19 11:00:00 12.5 0 Calma 15 Nordeste 0 -- -- 65
2017-11-19 10:00:00 8.9 6 Norte 13 Nordeste 0 -- -- 72
2017-11-19 09:00:00 4.9 6 Norte 14 Norte 0 -- -- 86
2017-11-19 08:00:00 5 6 Norte 17 Nordeste 0 -- -- 82
2017-11-19 07:00:00 6.2 6 Norte 23 Nordeste 0 -- -- 82
2017-11-19 06:00:00 6.4 5 Norte 15 Nordeste 0 -- -- 82
2017-11-19 05:00:00 6.1 5 Norte 12 Este 0 -- -- 84
2017-11-19 04:00:00 6.2 5 Noroeste 12 Nordeste 0 -- -- 81
2017-11-19 03:00:00 6 6 Norte 14 Norte 0 -- -- 83
2017-11-19 02:00:00 6.2 5 Noroeste 10 Norte 0 -- -- 85
2017-11-19 01:00:00 4.8 5 Norte 11 Noroeste 0 -- -- 90
2017-11-19 00:00:00 4.2 6 Noroeste 10 Noroeste 0 -- -- 90
2017-11-18 23:00:00 5.7 6 Noroeste 11 Norte 0 -- -- 87
2017-11-18 22:00:00 6 7 Noroeste 12 Norte 0 -- -- 90
2017-11-18 21:00:00 5.3 5 Noroeste 9 Norte 0 -- -- 89
2017-11-18 20:00:00 7.7 3 Norte 8 Nordeste 0 -- -- 84
2017-11-18 19:00:00 10.5 4 Noroeste 6 Noroeste 0 -- -- 79
2017-11-18 18:00:00 15.4 0 Calma 8 Noroeste 0 -- -- 62
2017-11-18 17:00:00 17.9 4 Noroeste 12 Oeste 0 -- -- 51
2017-11-18 16:00:00 20.1 4 Oeste 12 Sudoeste 0 -- -- 44
2017-11-18 15:00:00 20.7 7 Sudoeste 15 Sudeste 0 -- -- 42
2017-11-18 14:00:00 19.2 10 Este 23 Este 0 -- -- 40
2017-11-18 13:00:00 17.7 13 Este 26 Este 0 -- -- 44
2017-11-18 12:00:00 16 16 Este 35 Este 0 -- -- 48
2017-11-18 11:00:00 14.2 20 Este 36 Nordeste 0 -- -- 52
2017-11-18 10:00:00 13.1 20 Este 32 Este 0 -- -- 55
2017-11-18 09:00:00 12 18 Este 32 Este 0 -- -- 59
2017-11-18 08:00:00 12.2 14 Este 31 Este 0 -- -- 59
2017-11-18 07:00:00 11.2 14 Este 27 Este 0 -- -- 65
2017-11-18 06:00:00 7.4 9 Norte 17 Norte 0 -- -- 78
2017-11-18 05:00:00 7.9 6 Norte 17 Este 0 -- -- 76
2017-11-18 04:00:00 6.8 6 Norte 13 Norte 0 -- -- 82
2017-11-18 03:00:00 6.1 6 Norte 17 Este 0 -- -- 83
2017-11-18 02:00:00 6.4 5 Norte 12 Nordeste 0 -- -- 85
2017-11-18 01:00:00 6.2 6 Norte 15 Este 0 -- -- 89
2017-11-18 00:00:00 6.7 6 Norte 14 Nordeste 0 -- -- 85
2017-11-17 23:00:00 7.5 6 Norte 14 Nordeste 0 -- -- 85
2017-11-17 22:00:00 7.7 6 Noroeste 13 Nordeste 0 -- -- 88
2017-11-17 21:00:00 8.3 6 Norte 12 Norte 0 -- -- 90
2017-11-17 20:00:00 9.3 6 Nordeste 13 Nordeste 0 -- -- 84
2017-11-17 19:00:00 10.3 3 Norte 8 Nordeste 0 -- -- 83
2017-11-17 18:00:00 14.9 0 Calma 8 Sudoeste 0 -- -- 69
2017-11-17 17:00:00 17.4 3 Sudoeste 10 Sudoeste 0 -- -- 58
2017-11-17 16:00:00 19.3 6 Sudoeste 10 Sudoeste 0 -- -- 47
2017-11-17 15:00:00 19.2 5 Sudoeste 12 Sudoeste 0 -- -- 45
2017-11-17 14:00:00 18.6 7 Sudoeste 12 Sudoeste 0 -- -- 48
2017-11-17 13:00:00 17.7 6 Sudoeste 10 Oeste 0 -- -- 51
2017-11-17 12:00:00 15.8 4 Sudeste 9 Sudeste 0 -- -- 59
2017-11-17 11:00:00 11.8 5 Norte 13 Nordeste 0 -- -- 74
2017-11-17 10:00:00 7.3 8 Norte 22 Nordeste 0 -- -- 81
2017-11-17 09:00:00 4.4 8 Norte 16 Nordeste 0 -- -- 90
2017-11-17 08:00:00 2.6 5 Norte 13 Nordeste 0 -- -- 93
2017-11-17 07:00:00 3 5 Norte 9 Norte 0 -- -- 91
2017-11-17 06:00:00 3.7 5 Noroeste 15 Nordeste 0 -- -- 89
2017-11-17 05:00:00 4.3 6 Norte 16 Norte 0 -- -- 95
2017-11-17 04:00:00 4 6 Norte 17 Nordeste 0 -- -- 93
2017-11-17 03:00:00 3.5 5 Noroeste 13 Nordeste 0 -- -- 94
2017-11-17 02:00:00 4.4 5 Norte 15 Nordeste 0 -- -- 94
2017-11-17 01:00:00 4.5 5 Norte 14 Nordeste 0 -- -- 93
2017-11-17 00:00:00 4.2 6 Noroeste 10 Noroeste 0 -- -- 95
2017-11-16 23:00:00 5.2 6 Noroeste 9 Noroeste 0 -- -- 94
2017-11-16 22:00:00 5.3 7 Noroeste 11 Norte 0 -- -- 94
2017-11-16 21:00:00 5.4 5 Norte 13 Nordeste 0 -- -- 92
2017-11-16 20:00:00 7.2 5 Nordeste 12 Este 0 -- -- 87
2017-11-16 19:00:00 9.3 4 Nordeste 9 Este 0 -- -- 84
2017-11-16 18:00:00 13.3 0 Calma 4 Este 0 -- -- 66
2017-11-16 17:00:00 15.7 3 Sudoeste 11 Sudoeste 0 -- -- 53
2017-11-16 16:00:00 17.7 7 Sudoeste 15 Sur 0 -- -- 47
2017-11-16 15:00:00 18.3 6 Sudoeste 12 Sudoeste 0 -- -- 45
2017-11-16 14:00:00 17.2 5 Sudoeste 11 Sudoeste 0 -- -- 48
2017-11-16 13:00:00 16.6 5 Sudoeste 10 Sudoeste 0 -- -- 53
2017-11-16 12:00:00 13.9 4 Sudoeste 7 Sur 0 -- -- 62
2017-11-16 11:00:00 9.4 4 Norte 8 Norte 0 -- -- 85
2017-11-16 10:00:00 4.8 5 Norte 13 Nordeste 0 -- -- 94
2017-11-16 09:00:00 2.3 6 Norte 15 Nordeste 0 -- -- 94
2017-11-16 08:00:00 1.4 4 Norte 12 Noroeste 0 -- -- 95
2017-11-16 07:00:00 2.3 5 Norte 12 Nordeste 0 -- -- 95
2017-11-16 06:00:00 2 4 Norte 13 Nordeste 0 -- -- 94
2017-11-16 05:00:00 1.6 4 Norte 9 Nordeste 0 -- -- 97
2017-11-16 04:00:00 2 4 Norte 13 Nordeste 0 -- -- 100
2017-11-16 03:00:00 1.2 3 Norte 8 Norte 0 -- -- 96
2017-11-16 02:00:00 2.1 3 Norte 7 Nordeste 0 -- -- 96
2017-11-16 01:00:00 2.4 3 Norte 9 Nordeste 0 -- -- 96
2017-11-16 00:00:00 2.5 3 Norte 8 Noroeste 0 -- -- 95
2017-11-15 23:00:00 2.8 5 Noroeste 9 Noroeste 0 -- -- 94
2017-11-15 22:00:00 4.2 5 Norte 10 Nordeste 0 -- -- 92
2017-11-15 21:00:00 4.8 4 Noroeste 8 Este 0 -- -- 89
2017-11-15 20:00:00 6.9 4 Nordeste 12 Nordeste 0 -- -- 83
2017-11-15 19:00:00 9.3 0 Calma 3 Norte 0 -- -- 77
2017-11-15 18:00:00 12.8 4 Noroeste 9 Noroeste 0 -- -- 63
2017-11-15 17:00:00 14.9 7 Noroeste 14 Oeste 0 -- -- 53
2017-11-15 16:00:00 17.5 8 Sudoeste 13 Sudoeste 0 -- -- 46
2017-11-15 15:00:00 17.9 7 Sudoeste 15 Sudoeste 0 -- -- 45
2017-11-15 14:00:00 17.5 5 Sudoeste 11 Sudoeste 0 -- -- 47
2017-11-15 13:00:00 16.2 5 Sudoeste 10 Sur 0 -- -- 49
2017-11-15 12:00:00 14.4 4 Sudoeste 7 Sudoeste 0 -- -- 56
2017-11-15 11:00:00 12.3 4 Este 14 Nordeste 0 -- -- 59
2017-11-15 10:00:00 8 5 Nordeste 16 Nordeste 0 -- -- 74
2017-11-15 09:00:00 5.4 6 Nordeste 15 Este 0 -- -- 81
2017-11-15 08:00:00 4.6 6 Nordeste 15 Nordeste 0 -- -- 89
2017-11-15 07:00:00 2.5 3 Nordeste 8 Noroeste 0 -- -- 94
2017-11-15 06:00:00 2.9 4 Norte 9 Nordeste 0 -- -- 93
2017-11-15 05:00:00 4.1 0 Calma 12 Norte 0 -- -- 90
2017-11-15 04:00:00 4.3 4 Norte 14 Norte 0 -- -- 91
2017-11-15 03:00:00 3.1 7 Norte 12 Noroeste 0 -- -- 95
2017-11-15 02:00:00 3.7 2 Norte 13 Nordeste 0 -- -- 93
2017-11-15 01:00:00 3.1 4 Norte 12 Noroeste 0 -- -- 94
2017-11-15 00:00:00 3.4 2 Nordeste 9 Noroeste 0 -- -- 94